sensor_id;sensor_type;location;lat;lon;timestamp;temperature;humidity
12911;DHT22;6523;49.758;6.120;2022-11-20T00:00:25;7.40;99.90
12911;DHT22;6523;49.758;6.120;2022-11-20T00:02:51;7.40;99.90
12911;DHT22;6523;49.758;6.120;2022-11-20T00:05:16;7.40;99.90
12911;DHT22;6523;49.758;6.120;2022-11-20T00:07:42;7.40;99.90
12911;DHT22;6523;49.758;6.120;2022-11-20T00:10:08;7.40;99.90
12911;DHT22;6523;49.758;6.120;2022-11-20T00:12:33;7.40;99.90
12911;DHT22;6523;49.758;6.120;2022-11-20T00:14:59;7.40;99.90
12911;DHT22;6523;49.758;6.120;2022-11-20T00:17:25;7.40;99.90
12911;DHT22;6523;49.758;6.120;2022-11-20T00:19:50;7.40;99.90
12911;DHT22;6523;49.758;6.120;2022-11-20T00:22:16;7.40;99.90
12911;DHT22;6523;49.758;6.120;2022-11-20T00:24:41;7.40;99.90
12911;DHT22;6523;49.758;6.120;2022-11-20T00:27:07;7.40;99.90
12911;DHT22;6523;49.758;6.120;2022-11-20T00:29:32;7.40;99.90
12911;DHT22;6523;49.758;6.120;2022-11-20T00:31:58;7.30;99.90
12911;DHT22;6523;49.758;6.120;2022-11-20T00:34:23;7.40;99.90
12911;DHT22;6523;49.758;6.120;2022-11-20T00:36:49;7.40;99.90
12911;DHT22;6523;49.758;6.120;2022-11-20T00:39:14;7.40;99.90
12911;DHT22;6523;49.758;6.120;2022-11-20T00:41:40;7.30;99.90
12911;DHT22;6523;49.758;6.120;2022-11-20T00:44:06;7.30;99.90
12911;DHT22;6523;49.758;6.120;2022-11-20T00:46:31;7.30;99.90
12911;DHT22;6523;49.758;6.120;2022-11-20T00:48:57;7.30;99.90
12911;DHT22;6523;49.758;6.120;2022-11-20T00:51:24;7.30;99.90
12911;DHT22;6523;49.758;6.120;2022-11-20T00:53:50;7.20;99.90
12911;DHT22;6523;49.758;6.120;2022-11-20T00:56:18;7.20;99.90
12911;DHT22;6523;49.758;6.120;2022-11-20T00:58:45;7.20;99.90
12911;DHT22;6523;49.758;6.120;2022-11-20T01:01:17;7.20;99.90
12911;DHT22;6523;49.758;6.120;2022-11-20T01:03:45;7.20;99.90
12911;DHT22;6523;49.758;6.120;2022-11-20T01:06:32;7.20;99.90
12911;DHT22;6523;49.758;6.120;2022-11-20T01:09:00;7.20;99.90
12911;DHT22;6523;49.758;6.120;2022-11-20T01:11:31;7.20;99.90
12911;DHT22;6523;49.758;6.120;2022-11-20T01:13:58;7.20;99.90
12911;DHT22;6523;49.758;6.120;2022-11-20T01:16:30;7.20;99.90
12911;DHT22;6523;49.758;6.120;2022-11-20T01:18:58;7.20;99.90
12911;DHT22;6523;49.758;6.120;2022-11-20T01:21:36;7.20;99.90
12911;DHT22;6523;49.758;6.120;2022-11-20T01:24:02;7.20;99.90
12911;DHT22;6523;49.758;6.120;2022-11-20T01:26:33;7.20;99.90
12911;DHT22;6523;49.758;6.120;2022-11-20T01:28:59;7.20;99.90
12911;DHT22;6523;49.758;6.120;2022-11-20T01:31:29;7.20;99.90
12911;DHT22;6523;49.758;6.120;2022-11-20T01:33:57;7.20;99.90
12911;DHT22;6523;49.758;6.120;2022-11-20T01:36:25;7.20;99.90
12911;DHT22;6523;49.758;6.120;2022-11-20T01:38:53;7.20;99.90
12911;DHT22;6523;49.758;6.120;2022-11-20T01:41:20;7.20;99.90
12911;DHT22;6523;49.758;6.120;2022-11-20T01:44:05;7.20;99.90
12911;DHT22;6523;49.758;6.120;2022-11-20T01:46:32;7.20;99.90
12911;DHT22;6523;49.758;6.120;2022-11-20T01:49:21;7.20;99.90
12911;DHT22;6523;49.758;6.120;2022-11-20T01:51:52;7.20;99.90
12911;DHT22;6523;49.758;6.120;2022-11-20T01:55:21;7.20;99.90
12911;DHT22;6523;49.758;6.120;2022-11-20T01:57:29;7.20;99.90
12911;DHT22;6523;49.758;6.120;2022-11-20T02:00:02;7.20;99.90
12911;DHT22;6523;49.758;6.120;2022-11-20T02:02:28;7.20;99.90
12911;DHT22;6523;49.758;6.120;2022-11-20T02:04:57;7.20;99.90
12911;DHT22;6523;49.758;6.120;2022-11-20T02:07:26;7.20;99.90
12911;DHT22;6523;49.758;6.120;2022-11-20T02:09:53;7.20;99.90
12911;DHT22;6523;49.758;6.120;2022-11-20T02:12:18;7.20;99.90
12911;DHT22;6523;49.758;6.120;2022-11-20T02:15:03;7.20;99.90
12911;DHT22;6523;49.758;6.120;2022-11-20T02:17:29;7.20;99.90
12911;DHT22;6523;49.758;6.120;2022-11-20T02:19:55;7.20;99.90
12911;DHT22;6523;49.758;6.120;2022-11-20T02:22:28;7.20;99.90
12911;DHT22;6523;49.758;6.120;2022-11-20T02:24:56;7.20;99.90
12911;DHT22;6523;49.758;6.120;2022-11-20T02:27:23;7.10;99.90
12911;DHT22;6523;49.758;6.120;2022-11-20T02:30:00;7.20;99.90
12911;DHT22;6523;49.758;6.120;2022-11-20T02:32:30;7.20;99.90
12911;DHT22;6523;49.758;6.120;2022-11-20T02:34:55;7.20;99.90
12911;DHT22;6523;49.758;6.120;2022-11-20T02:37:22;7.10;99.90
12911;DHT22;6523;49.758;6.120;2022-11-20T02:39:50;7.10;99.90
12911;DHT22;6523;49.758;6.120;2022-11-20T02:42:16;7.10;99.90
12911;DHT22;6523;49.758;6.120;2022-11-20T02:44:42;7.10;99.90
12911;DHT22;6523;49.758;6.120;2022-11-20T02:47:08;7.10;99.90
12911;DHT22;6523;49.758;6.120;2022-11-20T02:49:34;7.10;99.90
12911;DHT22;6523;49.758;6.120;2022-11-20T02:52:00;7.10;99.90
12911;DHT22;6523;49.758;6.120;2022-11-20T02:54:25;7.10;99.90
12911;DHT22;6523;49.758;6.120;2022-11-20T02:56:51;7.10;99.90
12911;DHT22;6523;49.758;6.120;2022-11-20T02:59:17;7.10;99.90
12911;DHT22;6523;49.758;6.120;2022-11-20T03:01:42;7.10;99.90
12911;DHT22;6523;49.758;6.120;2022-11-20T03:04:08;7.10;99.90
12911;DHT22;6523;49.758;6.120;2022-11-20T03:06:33;7.10;99.90
12911;DHT22;6523;49.758;6.120;2022-11-20T03:08:59;7.10;99.90
12911;DHT22;6523;49.758;6.120;2022-11-20T03:11:25;7.10;99.90
12911;DHT22;6523;49.758;6.120;2022-11-20T03:13:50;7.10;99.90
12911;DHT22;6523;49.758;6.120;2022-11-20T03:16:18;7.10;99.90
12911;DHT22;6523;49.758;6.120;2022-11-20T03:18:45;7.00;99.90
12911;DHT22;6523;49.758;6.120;2022-11-20T03:21:11;7.00;99.90
12911;DHT22;6523;49.758;6.120;2022-11-20T03:23:38;7.00;99.90
12911;DHT22;6523;49.758;6.120;2022-11-20T03:26:15;7.00;99.90
12911;DHT22;6523;49.758;6.120;2022-11-20T03:28:42;7.00;99.90
12911;DHT22;6523;49.758;6.120;2022-11-20T03:31:13;7.00;99.90
12911;DHT22;6523;49.758;6.120;2022-11-20T03:33:40;7.00;99.90
12911;DHT22;6523;49.758;6.120;2022-11-20T03:36:17;7.00;99.90
12911;DHT22;6523;49.758;6.120;2022-11-20T03:38:43;7.00;99.90
12911;DHT22;6523;49.758;6.120;2022-11-20T03:41:12;7.00;99.90
12911;DHT22;6523;49.758;6.120;2022-11-20T03:43:37;7.00;99.90
12911;DHT22;6523;49.758;6.120;2022-11-20T03:46:04;7.00;99.90
12911;DHT22;6523;49.758;6.120;2022-11-20T03:48:30;7.00;99.90
12911;DHT22;6523;49.758;6.120;2022-11-20T03:51:16;7.00;99.90
12911;DHT22;6523;49.758;6.120;2022-11-20T03:53:44;7.10;99.90
12911;DHT22;6523;49.758;6.120;2022-11-20T03:56:10;7.10;99.90
12911;DHT22;6523;49.758;6.120;2022-11-20T03:58:38;7.10;99.90
12911;DHT22;6523;49.758;6.120;2022-11-20T04:01:18;7.10;99.90
12911;DHT22;6523;49.758;6.120;2022-11-20T04:03:44;7.10;99.90
12911;DHT22;6523;49.758;6.120;2022-11-20T04:06:26;7.10;99.90
12911;DHT22;6523;49.758;6.120;2022-11-20T04:08:54;7.10;99.90
12911;DHT22;6523;49.758;6.120;2022-11-20T04:11:28;7.10;99.90
12911;DHT22;6523;49.758;6.120;2022-11-20T04:13:56;7.10;99.90
12911;DHT22;6523;49.758;6.120;2022-11-20T04:16:23;7.10;99.90
12911;DHT22;6523;49.758;6.120;2022-11-20T04:18:53;7.10;99.90
12911;DHT22;6523;49.758;6.120;2022-11-20T04:21:19;7.10;99.90
12911;DHT22;6523;49.758;6.120;2022-11-20T04:23:45;7.10;99.90
12911;DHT22;6523;49.758;6.120;2022-11-20T04:26:12;7.10;99.90
12911;DHT22;6523;49.758;6.120;2022-11-20T04:28:38;7.10;99.90
12911;DHT22;6523;49.758;6.120;2022-11-20T04:31:05;7.10;99.90
12911;DHT22;6523;49.758;6.120;2022-11-20T04:33:32;7.10;99.90
12911;DHT22;6523;49.758;6.120;2022-11-20T04:36:04;7.10;99.90
12911;DHT22;6523;49.758;6.120;2022-11-20T04:38:30;7.10;99.90
12911;DHT22;6523;49.758;6.120;2022-11-20T04:40:59;7.00;99.90
12911;DHT22;6523;49.758;6.120;2022-11-20T04:43:25;7.00;99.90
12911;DHT22;6523;49.758;6.120;2022-11-20T04:45:53;7.00;99.90
12911;DHT22;6523;49.758;6.120;2022-11-20T04:48:18;7.00;99.90
12911;DHT22;6523;49.758;6.120;2022-11-20T04:50:44;6.90;99.90
12911;DHT22;6523;49.758;6.120;2022-11-20T04:53:09;7.00;99.90
12911;DHT22;6523;49.758;6.120;2022-11-20T04:55:35;7.00;99.90
12911;DHT22;6523;49.758;6.120;2022-11-20T04:58:01;6.90;99.90
12911;DHT22;6523;49.758;6.120;2022-11-20T05:00:26;6.80;99.90
12911;DHT22;6523;49.758;6.120;2022-11-20T05:02:52;6.80;99.90
12911;DHT22;6523;49.758;6.120;2022-11-20T05:05:17;6.90;99.90
12911;DHT22;6523;49.758;6.120;2022-11-20T05:07:43;6.80;99.90
12911;DHT22;6523;49.758;6.120;2022-11-20T05:10:09;6.90;99.90
12911;DHT22;6523;49.758;6.120;2022-11-20T05:12:34;6.90;99.90
12911;DHT22;6523;49.758;6.120;2022-11-20T05:15:00;6.90;99.90
12911;DHT22;6523;49.758;6.120;2022-11-20T05:17:25;6.90;99.90
12911;DHT22;6523;49.758;6.120;2022-11-20T05:19:51;6.90;99.90
12911;DHT22;6523;49.758;6.120;2022-11-20T05:22:16;6.90;99.90
12911;DHT22;6523;49.758;6.120;2022-11-20T05:24:42;7.00;99.90
12911;DHT22;6523;49.758;6.120;2022-11-20T05:27:07;6.90;99.90
12911;DHT22;6523;49.758;6.120;2022-11-20T05:29:33;7.00;99.90
12911;DHT22;6523;49.758;6.120;2022-11-20T05:31:59;7.00;99.90
12911;DHT22;6523;49.758;6.120;2022-11-20T05:34:24;7.00;99.90
12911;DHT22;6523;49.758;6.120;2022-11-20T05:36:50;7.00;99.90
12911;DHT22;6523;49.758;6.120;2022-11-20T05:39:15;7.00;99.90
12911;DHT22;6523;49.758;6.120;2022-11-20T05:41:41;7.00;99.90
12911;DHT22;6523;49.758;6.120;2022-11-20T05:44:06;7.00;99.90
12911;DHT22;6523;49.758;6.120;2022-11-20T05:46:32;7.00;99.90
12911;DHT22;6523;49.758;6.120;2022-11-20T05:48:58;7.00;99.90
12911;DHT22;6523;49.758;6.120;2022-11-20T05:51:24;7.00;99.90
12911;DHT22;6523;49.758;6.120;2022-11-20T05:53:50;7.00;99.90
12911;DHT22;6523;49.758;6.120;2022-11-20T05:56:18;7.00;99.90
12911;DHT22;6523;49.758;6.120;2022-11-20T05:58:44;7.00;99.90
12911;DHT22;6523;49.758;6.120;2022-11-20T06:01:22;7.00;99.90
12911;DHT22;6523;49.758;6.120;2022-11-20T06:03:48;7.00;99.90
12911;DHT22;6523;49.758;6.120;2022-11-20T06:06:16;7.00;99.90
12911;DHT22;6523;49.758;6.120;2022-11-20T06:08:43;7.00;99.90
12911;DHT22;6523;49.758;6.120;2022-11-20T06:11:10;7.00;99.90
12911;DHT22;6523;49.758;6.120;2022-11-20T06:13:36;7.00;99.90
12911;DHT22;6523;49.758;6.120;2022-11-20T06:16:02;7.00;99.90
12911;DHT22;6523;49.758;6.120;2022-11-20T06:18:29;7.00;99.90
12911;DHT22;6523;49.758;6.120;2022-11-20T06:21:13;7.00;99.90
12911;DHT22;6523;49.758;6.120;2022-11-20T06:23:39;7.00;99.90
12911;DHT22;6523;49.758;6.120;2022-11-20T06:26:10;7.00;99.90
12911;DHT22;6523;49.758;6.120;2022-11-20T06:28:36;7.00;99.90
12911;DHT22;6523;49.758;6.120;2022-11-20T06:31:02;7.00;99.90
12911;DHT22;6523;49.758;6.120;2022-11-20T06:33:28;7.00;99.90
12911;DHT22;6523;49.758;6.120;2022-11-20T06:36:01;7.00;99.90
12911;DHT22;6523;49.758;6.120;2022-11-20T06:38:28;7.00;99.90
12911;DHT22;6523;49.758;6.120;2022-11-20T06:40:53;7.00;99.90
12911;DHT22;6523;49.758;6.120;2022-11-20T06:43:19;7.00;99.90
12911;DHT22;6523;49.758;6.120;2022-11-20T06:45:45;7.00;99.90
12911;DHT22;6523;49.758;6.120;2022-11-20T06:48:10;7.00;99.90
12911;DHT22;6523;49.758;6.120;2022-11-20T06:50:37;7.00;99.90
12911;DHT22;6523;49.758;6.120;2022-11-20T06:53:03;7.00;99.90
12911;DHT22;6523;49.758;6.120;2022-11-20T06:55:30;7.00;99.90
12911;DHT22;6523;49.758;6.120;2022-11-20T06:57:56;7.00;99.90
12911;DHT22;6523;49.758;6.120;2022-11-20T07:00:22;7.00;99.90
12911;DHT22;6523;49.758;6.120;2022-11-20T07:02:47;7.00;99.90
12911;DHT22;6523;49.758;6.120;2022-11-20T07:05:13;7.00;99.90
12911;DHT22;6523;49.758;6.120;2022-11-20T07:07:38;7.00;99.90
12911;DHT22;6523;49.758;6.120;2022-11-20T07:10:05;7.00;99.90
12911;DHT22;6523;49.758;6.120;2022-11-20T07:12:30;7.00;99.90
12911;DHT22;6523;49.758;6.120;2022-11-20T07:14:56;7.00;99.90
12911;DHT22;6523;49.758;6.120;2022-11-20T07:17:22;7.00;99.90
12911;DHT22;6523;49.758;6.120;2022-11-20T07:19:47;7.00;99.90
12911;DHT22;6523;49.758;6.120;2022-11-20T07:22:13;7.10;99.90
12911;DHT22;6523;49.758;6.120;2022-11-20T07:24:38;7.10;99.90
12911;DHT22;6523;49.758;6.120;2022-11-20T07:27:04;7.10;99.90
12911;DHT22;6523;49.758;6.120;2022-11-20T07:29:30;7.10;99.90
12911;DHT22;6523;49.758;6.120;2022-11-20T07:31:56;7.00;99.90
12911;DHT22;6523;49.758;6.120;2022-11-20T07:34:22;7.00;99.90
12911;DHT22;6523;49.758;6.120;2022-11-20T07:36:48;7.10;99.90
12911;DHT22;6523;49.758;6.120;2022-11-20T07:39:13;7.10;99.90
12911;DHT22;6523;49.758;6.120;2022-11-20T07:41:39;7.10;99.90
12911;DHT22;6523;49.758;6.120;2022-11-20T07:44:05;7.10;99.90
12911;DHT22;6523;49.758;6.120;2022-11-20T07:46:30;7.10;99.90
12911;DHT22;6523;49.758;6.120;2022-11-20T07:48:56;7.20;99.90
12911;DHT22;6523;49.758;6.120;2022-11-20T07:51:21;7.20;99.90
12911;DHT22;6523;49.758;6.120;2022-11-20T07:53:47;7.20;99.90
12911;DHT22;6523;49.758;6.120;2022-11-20T07:56:15;7.20;99.90
12911;DHT22;6523;49.758;6.120;2022-11-20T07:58:41;7.20;99.90
12911;DHT22;6523;49.758;6.120;2022-11-20T08:01:07;7.20;99.90
12911;DHT22;6523;49.758;6.120;2022-11-20T08:03:33;7.20;99.90
12911;DHT22;6523;49.758;6.120;2022-11-20T08:06:01;7.20;99.90
12911;DHT22;6523;49.758;6.120;2022-11-20T08:08:28;7.20;99.90
12911;DHT22;6523;49.758;6.120;2022-11-20T08:10:54;7.20;99.90
12911;DHT22;6523;49.758;6.120;2022-11-20T08:13:39;7.20;99.90
12911;DHT22;6523;49.758;6.120;2022-11-20T08:16:23;7.20;99.90
12911;DHT22;6523;49.758;6.120;2022-11-20T08:18:49;7.10;99.90
12911;DHT22;6523;49.758;6.120;2022-11-20T08:21:15;7.10;99.90
12911;DHT22;6523;49.758;6.120;2022-11-20T08:23:40;7.10;99.90
12911;DHT22;6523;49.758;6.120;2022-11-20T08:26:06;7.00;99.90
12911;DHT22;6523;49.758;6.120;2022-11-20T08:28:32;7.10;99.90
12911;DHT22;6523;49.758;6.120;2022-11-20T08:30:59;7.20;99.90
12911;DHT22;6523;49.758;6.120;2022-11-20T08:33:25;7.20;99.90
12911;DHT22;6523;49.758;6.120;2022-11-20T08:48:10;7.30;99.90
12911;DHT22;6523;49.758;6.120;2022-11-20T08:50:36;7.30;99.90
12911;DHT22;6523;49.758;6.120;2022-11-20T08:53:05;7.30;99.90
12911;DHT22;6523;49.758;6.120;2022-11-20T08:55:30;7.30;99.90
12911;DHT22;6523;49.758;6.120;2022-11-20T08:57:56;7.30;99.90
12911;DHT22;6523;49.758;6.120;2022-11-20T09:00:23;7.30;99.90
12911;DHT22;6523;49.758;6.120;2022-11-20T09:02:49;7.30;99.90
12911;DHT22;6523;49.758;6.120;2022-11-20T09:05:14;7.40;99.90
12911;DHT22;6523;49.758;6.120;2022-11-20T09:07:40;7.40;99.90
12911;DHT22;6523;49.758;6.120;2022-11-20T09:10:06;7.40;99.90
12911;DHT22;6523;49.758;6.120;2022-11-20T09:12:33;7.40;99.90
12911;DHT22;6523;49.758;6.120;2022-11-20T09:14:58;7.40;99.90
12911;DHT22;6523;49.758;6.120;2022-11-20T09:17:24;7.30;99.90
12911;DHT22;6523;49.758;6.120;2022-11-20T09:19:49;7.40;99.90
12911;DHT22;6523;49.758;6.120;2022-11-20T09:22:15;7.40;99.90
12911;DHT22;6523;49.758;6.120;2022-11-20T09:24:41;7.30;99.90
12911;DHT22;6523;49.758;6.120;2022-11-20T09:27:08;7.40;99.90
12911;DHT22;6523;49.758;6.120;2022-11-20T09:29:33;7.40;99.90
12911;DHT22;6523;49.758;6.120;2022-11-20T09:31:59;7.50;99.90
12911;DHT22;6523;49.758;6.120;2022-11-20T09:34:25;7.60;99.90
12911;DHT22;6523;49.758;6.120;2022-11-20T09:36:50;7.80;99.90
12911;DHT22;6523;49.758;6.120;2022-11-20T09:39:16;7.80;99.90
12911;DHT22;6523;49.758;6.120;2022-11-20T09:42:06;7.70;99.90
12911;DHT22;6523;49.758;6.120;2022-11-20T09:47:25;7.70;99.90
12911;DHT22;6523;49.758;6.120;2022-11-20T09:52:49;7.60;99.90
12911;DHT22;6523;49.758;6.120;2022-11-20T09:55:17;7.70;99.90
12911;DHT22;6523;49.758;6.120;2022-11-20T09:57:46;7.80;99.90
12911;DHT22;6523;49.758;6.120;2022-11-20T10:00:14;7.80;99.90
12911;DHT22;6523;49.758;6.120;2022-11-20T10:05:31;7.80;99.90
12911;DHT22;6523;49.758;6.120;2022-11-20T10:08:27;7.80;99.90
12911;DHT22;6523;49.758;6.120;2022-11-20T10:17:05;8.00;99.90
12911;DHT22;6523;49.758;6.120;2022-11-20T10:27:57;7.80;99.90
12911;DHT22;6523;49.758;6.120;2022-11-20T10:30:25;7.80;99.90
12911;DHT22;6523;49.758;6.120;2022-11-20T10:33:00;8.10;99.90
12911;DHT22;6523;49.758;6.120;2022-11-20T10:35:37;8.00;99.90
12911;DHT22;6523;49.758;6.120;2022-11-20T10:38:18;8.40;99.90
12911;DHT22;6523;49.758;6.120;2022-11-20T10:40:48;8.50;99.90
12911;DHT22;6523;49.758;6.120;2022-11-20T10:43:42;8.50;99.90
12911;DHT22;6523;49.758;6.120;2022-11-20T10:46:18;8.50;99.90
12911;DHT22;6523;49.758;6.120;2022-11-20T10:48:46;8.50;99.90
12911;DHT22;6523;49.758;6.120;2022-11-20T10:51:30;8.60;99.90
12911;DHT22;6523;49.758;6.120;2022-11-20T10:54:23;8.50;99.90
12911;DHT22;6523;49.758;6.120;2022-11-20T10:56:53;8.60;99.90
12911;DHT22;6523;49.758;6.120;2022-11-20T11:02:21;8.50;99.90
12911;DHT22;6523;49.758;6.120;2022-11-20T11:04:49;8.50;99.90
12911;DHT22;6523;49.758;6.120;2022-11-20T11:07:29;8.50;99.90
12911;DHT22;6523;49.758;6.120;2022-11-20T11:09:56;8.30;99.90
12911;DHT22;6523;49.758;6.120;2022-11-20T11:12:28;8.40;99.90
12911;DHT22;6523;49.758;6.120;2022-11-20T11:14:57;8.30;99.90
12911;DHT22;6523;49.758;6.120;2022-11-20T11:17:29;8.30;99.90
12911;DHT22;6523;49.758;6.120;2022-11-20T11:22:44;8.30;99.90
12911;DHT22;6523;49.758;6.120;2022-11-20T11:27:59;8.20;99.90
12911;DHT22;6523;49.758;6.120;2022-11-20T11:30:26;8.20;99.90
12911;DHT22;6523;49.758;6.120;2022-11-20T11:33:05;8.20;99.90
12911;DHT22;6523;49.758;6.120;2022-11-20T11:35:31;8.10;99.90
12911;DHT22;6523;49.758;6.120;2022-11-20T11:38:06;8.10;99.90
12911;DHT22;6523;49.758;6.120;2022-11-20T11:40:34;8.00;99.90
12911;DHT22;6523;49.758;6.120;2022-11-20T11:43:04;8.20;99.90
12911;DHT22;6523;49.758;6.120;2022-11-20T11:45:30;8.10;99.90
12911;DHT22;6523;49.758;6.120;2022-11-20T11:48:03;8.10;99.90
12911;DHT22;6523;49.758;6.120;2022-11-20T11:50:29;8.20;99.90
12911;DHT22;6523;49.758;6.120;2022-11-20T11:53:16;8.30;99.90
12911;DHT22;6523;49.758;6.120;2022-11-20T11:56:08;8.10;99.90
12911;DHT22;6523;49.758;6.120;2022-11-20T12:04:17;8.00;99.90
12911;DHT22;6523;49.758;6.120;2022-11-20T12:07:10;8.10;99.90
12911;DHT22;6523;49.758;6.120;2022-11-20T12:09:46;8.00;99.90
12911;DHT22;6523;49.758;6.120;2022-11-20T12:12:20;8.10;99.90
12911;DHT22;6523;49.758;6.120;2022-11-20T12:14:48;8.20;99.90
12911;DHT22;6523;49.758;6.120;2022-11-20T12:17:16;8.00;99.90
12911;DHT22;6523;49.758;6.120;2022-11-20T12:19:43;8.10;99.90
12911;DHT22;6523;49.758;6.120;2022-11-20T12:25:21;8.00;99.90
12911;DHT22;6523;49.758;6.120;2022-11-20T12:30:46;7.80;99.90
12911;DHT22;6523;49.758;6.120;2022-11-20T12:53:40;8.00;99.90
12911;DHT22;6523;49.758;6.120;2022-11-20T13:06:54;7.90;99.90
12911;DHT22;6523;49.758;6.120;2022-11-20T13:09:20;8.00;99.90
12911;DHT22;6523;49.758;6.120;2022-11-20T13:14:50;7.90;99.90
12911;DHT22;6523;49.758;6.120;2022-11-20T13:17:34;7.80;99.90
12911;DHT22;6523;49.758;6.120;2022-11-20T13:20:02;7.70;99.90
12911;DHT22;6523;49.758;6.120;2022-11-20T13:22:48;7.80;99.90
12911;DHT22;6523;49.758;6.120;2022-11-20T13:25:37;7.80;99.90
12911;DHT22;6523;49.758;6.120;2022-11-20T13:30:36;7.80;99.90
12911;DHT22;6523;49.758;6.120;2022-11-20T13:33:06;7.70;99.90
12911;DHT22;6523;49.758;6.120;2022-11-20T13:35:41;7.70;99.90
12911;DHT22;6523;49.758;6.120;2022-11-20T13:38:08;7.60;99.90
12911;DHT22;6523;49.758;6.120;2022-11-20T13:40:38;7.60;99.90
12911;DHT22;6523;49.758;6.120;2022-11-20T13:46:03;7.60;99.90
12911;DHT22;6523;49.758;6.120;2022-11-20T13:48:45;7.50;99.90
12911;DHT22;6523;49.758;6.120;2022-11-20T13:54:28;7.50;99.90
12911;DHT22;6523;49.758;6.120;2022-11-20T14:00:02;7.50;99.90
12911;DHT22;6523;49.758;6.120;2022-11-20T14:02:30;7.50;99.90
12911;DHT22;6523;49.758;6.120;2022-11-20T14:04:58;7.50;99.90
12911;DHT22;6523;49.758;6.120;2022-11-20T14:07:32;7.40;99.90
12911;DHT22;6523;49.758;6.120;2022-11-20T14:10:00;7.40;99.90
12911;DHT22;6523;49.758;6.120;2022-11-20T14:12:31;7.40;99.90
12911;DHT22;6523;49.758;6.120;2022-11-20T14:14:57;7.30;99.90
12911;DHT22;6523;49.758;6.120;2022-11-20T14:17:33;7.30;99.90
12911;DHT22;6523;49.758;6.120;2022-11-20T14:20:05;7.30;99.90
12911;DHT22;6523;49.758;6.120;2022-11-20T14:22:31;7.30;99.90
12911;DHT22;6523;49.758;6.120;2022-11-20T14:27:39;7.20;99.90
12911;DHT22;6523;49.758;6.120;2022-11-20T14:30:15;7.20;99.90
12911;DHT22;6523;49.758;6.120;2022-11-20T14:32:43;7.10;99.90
12911;DHT22;6523;49.758;6.120;2022-11-20T14:35:23;7.10;99.90
12911;DHT22;6523;49.758;6.120;2022-11-20T14:37:49;7.20;99.90
12911;DHT22;6523;49.758;6.120;2022-11-20T14:40:28;7.10;99.90
12911;DHT22;6523;49.758;6.120;2022-11-20T14:42:55;7.10;99.90
12911;DHT22;6523;49.758;6.120;2022-11-20T14:45:21;7.10;99.90
12911;DHT22;6523;49.758;6.120;2022-11-20T14:47:47;7.00;99.90
12911;DHT22;6523;49.758;6.120;2022-11-20T14:50:18;7.00;99.90
12911;DHT22;6523;49.758;6.120;2022-11-20T14:52:52;6.90;99.90
12911;DHT22;6523;49.758;6.120;2022-11-20T14:55:36;6.80;99.90
12911;DHT22;6523;49.758;6.120;2022-11-20T14:58:20;6.80;99.90
12911;DHT22;6523;49.758;6.120;2022-11-20T15:01:05;6.80;99.90
12911;DHT22;6523;49.758;6.120;2022-11-20T15:03:38;6.80;99.90
12911;DHT22;6523;49.758;6.120;2022-11-20T15:06:05;6.80;99.90
12911;DHT22;6523;49.758;6.120;2022-11-20T15:08:31;6.70;99.90
12911;DHT22;6523;49.758;6.120;2022-11-20T15:10:57;6.70;99.90
12911;DHT22;6523;49.758;6.120;2022-11-20T15:13:30;6.60;99.90
12911;DHT22;6523;49.758;6.120;2022-11-20T15:15:58;6.60;99.90
12911;DHT22;6523;49.758;6.120;2022-11-20T15:18:36;6.60;99.90
12911;DHT22;6523;49.758;6.120;2022-11-20T15:21:07;6.60;99.90
12911;DHT22;6523;49.758;6.120;2022-11-20T15:23:34;6.50;99.90
12911;DHT22;6523;49.758;6.120;2022-11-20T15:26:00;6.50;99.90
12911;DHT22;6523;49.758;6.120;2022-11-20T15:28:32;6.50;99.90
12911;DHT22;6523;49.758;6.120;2022-11-20T15:30:59;6.40;99.90
12911;DHT22;6523;49.758;6.120;2022-11-20T15:33:25;6.40;99.90
12911;DHT22;6523;49.758;6.120;2022-11-20T15:35:51;6.40;99.90
12911;DHT22;6523;49.758;6.120;2022-11-20T15:38:16;6.40;99.90
12911;DHT22;6523;49.758;6.120;2022-11-20T15:40:42;6.40;99.90
12911;DHT22;6523;49.758;6.120;2022-11-20T15:43:08;6.40;99.90
12911;DHT22;6523;49.758;6.120;2022-11-20T15:48:14;6.30;99.90
12911;DHT22;6523;49.758;6.120;2022-11-20T15:53:26;6.30;99.90
12911;DHT22;6523;49.758;6.120;2022-11-20T15:55:52;6.30;99.90
12911;DHT22;6523;49.758;6.120;2022-11-20T15:58:18;6.30;99.90
12911;DHT22;6523;49.758;6.120;2022-11-20T16:00:44;6.30;99.90
12911;DHT22;6523;49.758;6.120;2022-11-20T16:03:14;6.30;99.90
12911;DHT22;6523;49.758;6.120;2022-11-20T16:05:40;6.20;99.90
12911;DHT22;6523;49.758;6.120;2022-11-20T16:08:06;6.20;99.90
12911;DHT22;6523;49.758;6.120;2022-11-20T16:10:32;6.20;99.90
12911;DHT22;6523;49.758;6.120;2022-11-20T16:12:57;6.10;99.90
12911;DHT22;6523;49.758;6.120;2022-11-20T16:15:41;6.10;99.90
12911;DHT22;6523;49.758;6.120;2022-11-20T16:18:11;6.10;99.90
12911;DHT22;6523;49.758;6.120;2022-11-20T16:20:38;6.10;99.90
12911;DHT22;6523;49.758;6.120;2022-11-20T16:23:04;6.10;99.90
12911;DHT22;6523;49.758;6.120;2022-11-20T16:25:30;6.10;99.90
12911;DHT22;6523;49.758;6.120;2022-11-20T16:27:56;6.10;99.90
12911;DHT22;6523;49.758;6.120;2022-11-20T16:30:21;6.10;99.90
12911;DHT22;6523;49.758;6.120;2022-11-20T16:32:47;6.10;99.90
12911;DHT22;6523;49.758;6.120;2022-11-20T16:35:13;6.10;99.90
12911;DHT22;6523;49.758;6.120;2022-11-20T16:37:39;6.10;99.90
12911;DHT22;6523;49.758;6.120;2022-11-20T16:40:05;6.20;99.90
12911;DHT22;6523;49.758;6.120;2022-11-20T16:42:34;6.10;99.90
12911;DHT22;6523;49.758;6.120;2022-11-20T16:45:00;6.10;99.90
12911;DHT22;6523;49.758;6.120;2022-11-20T16:47:25;6.20;99.90
12911;DHT22;6523;49.758;6.120;2022-11-20T16:49:51;6.20;99.90
12911;DHT22;6523;49.758;6.120;2022-11-20T16:52:17;6.20;99.90
12911;DHT22;6523;49.758;6.120;2022-11-20T16:54:42;6.30;99.90
12911;DHT22;6523;49.758;6.120;2022-11-20T16:57:08;6.30;99.90
12911;DHT22;6523;49.758;6.120;2022-11-20T16:59:33;6.30;99.90
12911;DHT22;6523;49.758;6.120;2022-11-20T17:01:59;6.30;99.90
12911;DHT22;6523;49.758;6.120;2022-11-20T17:04:24;6.40;99.90
12911;DHT22;6523;49.758;6.120;2022-11-20T17:06:50;6.40;99.90
12911;DHT22;6523;49.758;6.120;2022-11-20T17:09:16;6.40;99.90
12911;DHT22;6523;49.758;6.120;2022-11-20T17:11:42;6.40;99.90
12911;DHT22;6523;49.758;6.120;2022-11-20T17:14:12;6.40;99.90
12911;DHT22;6523;49.758;6.120;2022-11-20T17:16:38;6.40;99.90
12911;DHT22;6523;49.758;6.120;2022-11-20T17:19:03;6.40;99.90
12911;DHT22;6523;49.758;6.120;2022-11-20T17:21:33;6.50;99.90
12911;DHT22;6523;49.758;6.120;2022-11-20T17:24:04;6.50;99.90
12911;DHT22;6523;49.758;6.120;2022-11-20T17:26:30;6.50;99.90
12911;DHT22;6523;49.758;6.120;2022-11-20T17:29:01;6.50;99.90
12911;DHT22;6523;49.758;6.120;2022-11-20T17:31:28;6.50;99.90
12911;DHT22;6523;49.758;6.120;2022-11-20T17:33:54;6.50;99.90
12911;DHT22;6523;49.758;6.120;2022-11-20T17:36:20;6.50;99.90
12911;DHT22;6523;49.758;6.120;2022-11-20T17:38:46;6.50;99.90
12911;DHT22;6523;49.758;6.120;2022-11-20T17:41:18;6.50;99.90
12911;DHT22;6523;49.758;6.120;2022-11-20T17:43:44;6.50;99.90
12911;DHT22;6523;49.758;6.120;2022-11-20T17:46:12;6.50;99.90
12911;DHT22;6523;49.758;6.120;2022-11-20T17:48:39;6.50;99.90
12911;DHT22;6523;49.758;6.120;2022-11-20T17:51:10;6.40;99.90
12911;DHT22;6523;49.758;6.120;2022-11-20T17:53:38;6.40;99.90
12911;DHT22;6523;49.758;6.120;2022-11-20T17:56:04;6.50;99.90
12911;DHT22;6523;49.758;6.120;2022-11-20T17:58:48;6.50;99.90
12911;DHT22;6523;49.758;6.120;2022-11-20T18:01:14;6.40;99.90